createdAt,value
2023-04-21T00:00:31.577Z,50.86
2023-04-21T00:03:03.524Z,50.86
2023-04-21T00:05:33.389Z,50.94
2023-04-21T00:08:09.143Z,50.93
2023-04-21T00:10:37.439Z,50.77
2023-04-21T00:13:05.720Z,50.92
2023-04-21T00:15:34.017Z,50.90
2023-04-21T00:18:07.787Z,50.86
2023-04-21T00:20:36.722Z,50.98
2023-04-21T00:23:05.034Z,51.06
2023-04-21T00:25:33.333Z,50.91
2023-04-21T00:28:01.568Z,50.98
2023-04-21T00:30:29.921Z,51.07
2023-04-21T00:32:58.252Z,50.98
2023-04-21T00:35:28.224Z,51.15
2023-04-21T00:37:56.522Z,51.17
2023-04-21T00:40:24.870Z,51.15
2023-04-21T00:42:53.152Z,51.29
2023-04-21T00:45:21.481Z,51.42
2023-04-21T00:47:49.870Z,51.41
2023-04-21T00:50:18.213Z,51.48
2023-04-21T00:52:49.082Z,51.54
2023-04-21T00:55:17.959Z,51.72
2023-04-21T00:57:46.596Z,51.70
2023-04-21T01:00:17.367Z,51.68
2023-04-21T01:02:46.505Z,51.83
2023-04-21T01:05:18.236Z,51.96
2023-04-21T01:07:48.040Z,51.94
2023-04-21T01:10:16.520Z,51.70
2023-04-21T01:12:46.284Z,51.90
2023-04-21T01:15:16.342Z,51.80
2023-04-21T01:17:45.462Z,52.20
2023-04-21T01:20:16.238Z,51.85
2023-04-21T01:22:51.763Z,51.94
2023-04-21T01:25:22.805Z,51.85
2023-04-21T01:27:51.944Z,51.74
2023-04-21T01:30:20.261Z,51.81
2023-04-21T01:32:48.629Z,51.72
2023-04-21T01:35:17.183Z,51.70
2023-04-21T01:37:45.482Z,51.87
2023-04-21T01:40:15.390Z,51.78
2023-04-21T01:42:44.500Z,51.83
2023-04-21T01:45:13.540Z,51.80
2023-04-21T01:47:41.959Z,51.77
2023-04-21T01:50:11.030Z,51.80
2023-04-21T01:52:39.364Z,51.74
2023-04-21T01:55:08.652Z,51.94
2023-04-21T01:57:38.573Z,51.90
2023-04-21T02:00:11.810Z,52.02
2023-04-21T02:02:40.398Z,51.93
2023-04-21T02:05:09.649Z,51.96
2023-04-21T02:07:37.967Z,51.94
2023-04-21T02:10:07.172Z,51.98
2023-04-21T02:12:39.993Z,51.89
2023-04-21T02:15:10.043Z,51.79
2023-04-21T02:17:39.183Z,51.66
2023-04-21T02:20:10.558Z,51.72
2023-04-21T02:22:40.677Z,51.54
2023-04-21T02:25:12.914Z,51.85
2023-04-21T02:27:42.759Z,51.77
2023-04-21T02:30:11.994Z,51.63
2023-04-21T02:32:40.559Z,51.67
2023-04-21T02:35:09.960Z,51.71
2023-04-21T02:37:38.228Z,51.78
2023-04-21T02:40:08.287Z,51.79
2023-04-21T02:42:36.769Z,51.80
2023-04-21T02:45:14.367Z,51.83
2023-04-21T02:47:42.739Z,51.71
2023-04-21T02:50:14.658Z,51.81
2023-04-21T02:52:42.998Z,51.84
2023-04-21T02:55:11.662Z,51.71
2023-04-21T02:57:40.000Z,51.73
2023-04-21T03:00:12.505Z,51.80
2023-04-21T03:02:41.189Z,51.71
2023-04-21T03:05:10.252Z,51.78
2023-04-21T03:07:38.729Z,51.73
2023-04-21T03:10:08.295Z,51.74
2023-04-21T03:12:44.754Z,51.84
2023-04-21T03:15:15.135Z,51.75
2023-04-21T03:17:43.763Z,51.90
2023-04-21T03:20:12.918Z,51.88
2023-04-21T03:22:41.281Z,51.84
2023-04-21T03:25:10.306Z,51.76
2023-04-21T03:27:38.828Z,52.04
2023-04-21T03:30:08.995Z,51.93
2023-04-21T03:32:38.814Z,51.85
2023-04-21T03:35:07.739Z,52.06
2023-04-21T03:37:36.108Z,52.03
2023-04-21T03:40:07.243Z,52.06
2023-04-21T03:42:38.684Z,52.08
2023-04-21T03:45:09.543Z,52.10
2023-04-21T03:47:39.295Z,52.03
2023-04-21T03:50:09.092Z,52.24
2023-04-21T03:52:40.400Z,52.07
2023-04-21T03:55:11.679Z,52.15
2023-04-21T03:57:41.954Z,52.20
2023-04-21T04:00:12.133Z,52.58
2023-04-21T04:02:44.263Z,52.24
2023-04-21T04:05:12.807Z,52.21
2023-04-21T04:07:41.197Z,52.28
2023-04-21T04:10:09.768Z,52.34
2023-04-21T04:12:38.060Z,52.51
2023-04-21T04:15:08.450Z,52.36
2023-04-21T04:17:39.075Z,52.25
2023-04-21T04:20:10.486Z,52.20
2023-04-21T04:22:38.920Z,52.35
2023-04-21T04:25:07.781Z,52.44
2023-04-21T04:27:37.001Z,52.24
2023-04-21T04:30:07.099Z,52.39
2023-04-21T04:32:35.613Z,52.44
2023-04-21T04:35:04.100Z,52.55
2023-04-21T04:37:35.240Z,52.43
2023-04-21T04:40:12.211Z,52.48
2023-04-21T04:42:43.937Z,52.53
2023-04-21T04:45:13.975Z,52.57
2023-04-21T04:47:42.556Z,52.54
2023-04-21T04:50:11.310Z,52.71
2023-04-21T04:52:49.748Z,52.89
2023-04-21T04:55:18.916Z,52.99
2023-04-21T04:57:47.230Z,53.01
2023-04-21T05:00:16.222Z,53.12
2023-04-21T05:02:44.677Z,53.04
2023-04-21T05:05:13.415Z,53.06
2023-04-21T05:07:43.357Z,53.28
2023-04-21T05:10:11.852Z,53.40
2023-04-21T05:12:40.186Z,53.49
2023-04-21T05:15:10.236Z,53.46
2023-04-21T05:17:40.645Z,53.59
2023-04-21T05:20:10.925Z,53.67
2023-04-21T05:22:39.641Z,53.94
2023-04-21T05:25:11.806Z,54.03
2023-04-21T05:27:40.179Z,54.21
2023-04-21T05:30:09.912Z,54.24
2023-04-21T05:32:38.293Z,54.22
2023-04-21T05:35:08.008Z,54.36
2023-04-21T05:37:36.661Z,54.46
2023-04-21T05:40:05.481Z,54.55
2023-04-21T05:42:37.836Z,54.78
2023-04-21T05:45:07.820Z,54.84
2023-04-21T05:47:37.351Z,54.84
2023-04-21T05:50:06.548Z,54.89
2023-04-21T05:52:35.041Z,55.13
2023-04-21T05:55:03.399Z,55.15
2023-04-21T05:57:31.868Z,55.20
2023-04-21T06:00:05.629Z,55.27
2023-04-21T06:02:34.107Z,55.62
2023-04-21T06:05:02.576Z,55.82
2023-04-21T06:07:31.281Z,55.80
2023-04-21T06:09:59.638Z,56.12
2023-04-21T06:12:27.929Z,56.14
2023-04-21T06:14:57.642Z,56.23
2023-04-21T06:17:27.404Z,56.34
2023-04-21T06:19:56.170Z,56.55
2023-04-21T06:22:24.592Z,56.52
2023-04-21T06:24:53.042Z,56.58
2023-04-21T06:27:21.345Z,56.92
2023-04-21T06:29:49.743Z,57.01
2023-04-21T06:32:18.082Z,57.12
2023-04-21T06:34:47.857Z,57.17
2023-04-21T06:37:16.609Z,57.16
2023-04-21T06:39:45.104Z,57.10
2023-04-21T06:42:13.586Z,57.14
2023-04-21T06:44:41.920Z,57.20
2023-04-21T06:47:10.366Z,57.05
2023-04-21T06:49:38.827Z,57.02
2023-04-21T06:52:08.728Z,56.69
2023-04-21T06:54:37.078Z,56.52
2023-04-21T06:57:05.806Z,56.36
2023-04-21T06:59:34.909Z,56.25
2023-04-21T07:02:03.406Z,56.19
2023-04-21T07:04:32.326Z,56.46
2023-04-21T07:07:03.928Z,56.29
2023-04-21T07:09:34.062Z,56.48
2023-04-21T07:12:02.818Z,56.54
2023-04-21T07:14:31.226Z,56.42
2023-04-21T07:16:59.679Z,56.30
2023-04-21T07:19:31.281Z,55.98
2023-04-21T07:21:59.773Z,55.72
2023-04-21T07:24:28.143Z,55.45
2023-04-21T07:26:57.980Z,54.54
2023-04-21T07:29:26.466Z,53.64
2023-04-21T07:31:55.391Z,53.91
2023-04-21T07:34:23.803Z,54.08
2023-04-21T07:36:56.699Z,53.58
2023-04-21T07:39:25.130Z,53.45
2023-04-21T07:41:53.986Z,53.47
2023-04-21T07:44:23.796Z,53.28
2023-04-21T07:46:52.098Z,52.50
2023-04-21T07:49:21.670Z,52.48
2023-04-21T07:51:52.676Z,52.60
2023-04-21T07:54:20.986Z,52.47
2023-04-21T07:56:49.279Z,51.45
2023-04-21T07:59:17.767Z,49.98
2023-04-21T08:01:47.544Z,49.90
2023-04-21T08:04:16.339Z,49.68
2023-04-21T08:06:45.238Z,50.01
2023-04-21T08:09:13.922Z,49.68
2023-04-21T08:11:42.206Z,49.54
2023-04-21T08:14:11.873Z,49.60
2023-04-21T08:16:42.323Z,49.75
2023-04-21T08:19:12.188Z,48.39
2023-04-21T08:21:44.354Z,48.49
2023-04-21T08:24:12.651Z,47.98
2023-04-21T08:26:41.062Z,48.05
2023-04-21T08:29:10.774Z,47.71
2023-04-21T08:31:44.449Z,47.74
2023-04-21T08:34:14.176Z,46.03
2023-04-21T08:36:42.842Z,45.67
2023-04-21T08:39:11.337Z,45.60
2023-04-21T08:41:41.855Z,45.86
2023-04-21T08:44:11.582Z,46.11
2023-04-21T08:46:49.409Z,45.08
2023-04-21T19:44:08.763Z,32.62
2023-04-21T19:46:37.349Z,32.85
2023-04-21T19:49:05.871Z,33.00
2023-04-21T19:51:34.203Z,32.92
2023-04-21T19:54:10.579Z,33.24
2023-04-21T19:56:40.399Z,33.11
2023-04-21T19:59:10.108Z,33.43
2023-04-21T20:01:38.594Z,33.09
2023-04-21T20:04:07.286Z,33.37
2023-04-21T20:06:36.793Z,33.49
2023-04-21T20:09:05.981Z,33.50
2023-04-21T20:11:34.803Z,33.36
2023-04-21T20:14:03.239Z,33.79
2023-04-21T20:16:33.088Z,33.63
2023-04-21T20:19:01.415Z,33.91
2023-04-21T20:21:29.925Z,34.01
2023-04-21T20:23:58.209Z,33.94
2023-04-21T20:26:26.644Z,33.94
2023-04-21T20:28:55.018Z,34.09
2023-04-21T20:31:25.540Z,34.26
2023-04-21T20:33:55.457Z,34.16
2023-04-21T20:36:23.759Z,34.40
2023-04-21T20:38:52.350Z,34.40
2023-04-21T20:41:23.262Z,34.35
2023-04-21T20:43:52.022Z,34.48
2023-04-21T20:46:20.541Z,34.69
2023-04-21T20:48:48.877Z,34.75
2023-04-21T20:51:18.649Z,35.05
2023-04-21T20:53:46.965Z,35.21
2023-04-21T20:56:15.575Z,35.08
2023-04-21T20:58:43.966Z,35.58
2023-04-21T21:01:13.471Z,35.71
2023-04-21T21:03:42.076Z,35.61
2023-04-21T21:06:10.935Z,35.86
2023-04-21T21:08:41.326Z,35.67
2023-04-21T21:11:09.687Z,35.98
2023-04-21T21:13:38.020Z,35.86
2023-04-21T21:16:07.526Z,36.08
2023-04-21T21:18:36.098Z,36.29
2023-04-21T21:21:06.667Z,36.43
2023-04-21T21:23:35.039Z,36.46
2023-04-21T21:26:04.909Z,36.66
2023-04-21T21:28:33.229Z,36.74
2023-04-21T21:31:01.632Z,36.84
2023-04-21T21:33:29.985Z,37.21
2023-04-21T21:35:58.340Z,37.36
2023-04-21T21:38:26.795Z,37.42
2023-04-21T21:40:55.224Z,37.47
2023-04-21T21:43:25.094Z,37.71
2023-04-21T21:45:54.482Z,37.91
2023-04-21T21:48:23.056Z,37.94
2023-04-21T21:50:51.501Z,38.17
2023-04-21T21:53:19.856Z,38.20
2023-04-21T21:55:48.278Z,38.23
2023-04-21T21:58:16.864Z,38.43
2023-04-21T22:00:51.704Z,38.49
2023-04-21T22:03:20.361Z,38.57
2023-04-21T22:05:48.926Z,38.69
2023-04-21T22:08:17.309Z,38.84
2023-04-21T22:10:46.220Z,38.98
2023-04-21T22:13:14.641Z,38.91
2023-04-21T22:15:43.119Z,38.94
2023-04-21T22:18:12.999Z,39.17
2023-04-21T22:20:41.603Z,39.28
2023-04-21T22:23:10.276Z,39.48
2023-04-21T22:25:38.704Z,39.53
2023-04-21T22:28:07.136Z,39.75
2023-04-21T22:30:35.572Z,39.69
2023-04-21T22:33:04.125Z,39.71
2023-04-21T22:35:34.053Z,40.07
2023-04-21T22:38:02.450Z,40.10
2023-04-21T22:40:30.967Z,40.12
2023-04-21T22:42:59.827Z,40.10
2023-04-21T22:45:28.453Z,40.18
2023-04-21T22:47:56.993Z,40.19
2023-04-21T22:50:25.693Z,40.17
2023-04-21T22:52:55.478Z,40.19
2023-04-21T22:55:25.573Z,40.34
2023-04-21T22:57:54.025Z,40.10
2023-04-21T23:00:22.503Z,40.29
2023-04-21T23:02:51.250Z,40.41
2023-04-21T23:05:19.991Z,40.43
2023-04-21T23:07:48.434Z,40.58
2023-04-21T23:10:18.445Z,40.56
2023-04-21T23:12:46.870Z,40.72
2023-04-21T23:15:15.753Z,40.64
2023-04-21T23:17:45.421Z,40.82
2023-04-21T23:20:14.293Z,41.09
2023-04-21T23:22:43.142Z,41.11
2023-04-21T23:25:12.062Z,41.05
2023-04-21T23:27:41.951Z,41.19
2023-04-21T23:30:11.971Z,41.19
2023-04-21T23:32:40.463Z,41.31
2023-04-21T23:35:10.599Z,41.23
2023-04-21T23:37:39.152Z,41.25
2023-04-21T23:40:11.314Z,41.22
2023-04-21T23:42:41.490Z,41.34
2023-04-21T23:45:15.708Z,41.33
2023-04-21T23:47:45.553Z,41.24
2023-04-21T23:50:14.264Z,41.40
2023-04-21T23:52:44.168Z,41.39
2023-04-21T23:55:13.063Z,41.38
2023-04-21T23:57:44.591Z,41.47
